TEZ28Y UZTT-UCFM
Flight info
| Callsign | TEZ28Y |
|---|---|
| Flight time | 1h 1m |
| Altitude | 31000 |
| Route | TISIB2C TISIB L143 RUDEK M34 GASTA JETTO1 |
| Aircraft | RJ85/M-SDFGIRWY/LB1 |
Departure
| Time | 2026-04-22 16:19 |
|---|---|
| Airport | Tashkent International Airport (UZTT) |
Arrival
| Time | 2026-04-22 17:20 |
|---|---|
| Airport | Manas International Airport (UCFM) |
| Time | Latitude | Longitude | Altitude | Speed | Heading |
|---|---|---|---|---|---|
| 2026-04-22 15:45 | 41.26112 | 69.26697 | 1395 ft | 0 kts | 352° |
| 2026-04-22 16:01 | 41.26103 | 69.26699 | 1402 ft | 4 kts | 345° |
| 2026-04-22 16:01 | 41.26079 | 69.26714 | 1394 ft | 4 kts | 328° |
| 2026-04-22 16:01 | 41.26063 | 69.26720 | 1404 ft | 2 kts | 58° |
| 2026-04-22 16:02 | 41.26063 | 69.26718 | 1404 ft | 0 kts | 59° |
| 2026-04-22 16:08 | 41.26065 | 69.26723 | 1394 ft | 2 kts | 59° |
| 2026-04-22 16:09 | 41.26080 | 69.26757 | 1403 ft | 6 kts | 60° |
| 2026-04-22 16:09 | 41.26086 | 69.26816 | 1395 ft | 7 kts | 112° |
| 2026-04-22 16:09 | 41.26045 | 69.26874 | 1398 ft | 10 kts | 121° |
| 2026-04-22 16:09 | 41.26029 | 69.26960 | 1397 ft | 10 kts | 127° |
| 2026-04-22 16:10 | 41.25985 | 69.27018 | 1404 ft | 7 kts | 113° |
| 2026-04-22 16:10 | 41.25989 | 69.27065 | 1400 ft | 5 kts | 63° |
| 2026-04-22 16:10 | 41.26004 | 69.27112 | 1403 ft | 6 kts | 66° |
| 2026-04-22 16:10 | 41.26021 | 69.27163 | 1399 ft | 6 kts | 66° |
| 2026-04-22 16:11 | 41.26040 | 69.27216 | 1396 ft | 6 kts | 63° |
| 2026-04-22 16:11 | 41.26061 | 69.27269 | 1403 ft | 6 kts | 63° |
| 2026-04-22 16:11 | 41.26073 | 69.27324 | 1400 ft | 6 kts | 80° |
| 2026-04-22 16:11 | 41.26082 | 69.27416 | 1404 ft | 14 kts | 83° |
| 2026-04-22 16:12 | 41.26097 | 69.27544 | 1401 ft | 14 kts | 81° |
| 2026-04-22 16:12 | 41.26111 | 69.27662 | 1401 ft | 11 kts | 81° |
| 2026-04-22 16:12 | 41.26119 | 69.27744 | 1402 ft | 8 kts | 83° |
| 2026-04-22 16:12 | 41.26128 | 69.27828 | 1403 ft | 10 kts | 81° |
| 2026-04-22 16:13 | 41.26140 | 69.27934 | 1403 ft | 13 kts | 81° |
| 2026-04-22 16:13 | 41.26155 | 69.28058 | 1406 ft | 14 kts | 81° |
| 2026-04-22 16:13 | 41.26168 | 69.28198 | 1403 ft | 16 kts | 83° |
| 2026-04-22 16:13 | 41.26182 | 69.28353 | 1408 ft | 18 kts | 83° |
| 2026-04-22 16:14 | 41.26187 | 69.28519 | 1402 ft | 19 kts | 92° |
| 2026-04-22 16:14 | 41.26182 | 69.28696 | 1404 ft | 19 kts | 88° |
| 2026-04-22 16:14 | 41.26186 | 69.28879 | 1404 ft | 20 kts | 89° |
| 2026-04-22 16:14 | 41.26193 | 69.29068 | 1405 ft | 21 kts | 87° |
| 2026-04-22 16:15 | 41.26197 | 69.29260 | 1407 ft | 21 kts | 89° |
| 2026-04-22 16:15 | 41.26200 | 69.29453 | 1411 ft | 21 kts | 88° |
| 2026-04-22 16:15 | 41.26205 | 69.29648 | 1410 ft | 21 kts | 88° |
| 2026-04-22 16:15 | 41.26210 | 69.29832 | 1414 ft | 17 kts | 88° |
| 2026-04-22 16:16 | 41.26210 | 69.29959 | 1413 ft | 10 kts | 102° |
| 2026-04-22 16:16 | 41.26191 | 69.30013 | 1417 ft | 4 kts | 129° |
| 2026-04-22 16:16 | 41.26176 | 69.30033 | 1419 ft | 3 kts | 139° |
| 2026-04-22 16:16 | 41.26146 | 69.30060 | 1418 ft | 7 kts | 153° |
| 2026-04-22 16:17 | 41.26084 | 69.30074 | 1421 ft | 12 kts | 200° |
| 2026-04-22 16:17 | 41.26052 | 69.29990 | 1421 ft | 8 kts | 262° |
| 2026-04-22 16:17 | 41.26041 | 69.29882 | 1422 ft | 28 kts | 261° |
| 2026-04-22 16:17 | 41.25990 | 69.29421 | 1419 ft | 72 kts | 261° |
| 2026-04-22 16:18 | 41.25898 | 69.28592 | 1409 ft | 108 kts | 261° |
| 2026-04-22 16:18 | 41.25778 | 69.27490 | 1408 ft | 137 kts | 262° |
| 2026-04-22 16:18 | 41.25656 | 69.26179 | 1560 ft | 146 kts | 265° |
| 2026-04-22 16:18 | 41.25548 | 69.24799 | 1798 ft | 151 kts | 266° |
| 2026-04-22 16:19 | 41.25431 | 69.23370 | 2024 ft | 161 kts | 264° |
| 2026-04-22 16:19 | 41.25286 | 69.21825 | 2174 ft | 175 kts | 262° |
| 2026-04-22 16:19 | 41.25122 | 69.20163 | 2415 ft | 183 kts | 260° |
| 2026-04-22 16:19 | 41.24937 | 69.18462 | 2626 ft | 192 kts | 256° |
| 2026-04-22 16:20 | 41.24676 | 69.16624 | 2665 ft | 213 kts | 255° |
| 2026-04-22 16:20 | 41.24375 | 69.14605 | 2864 ft | 232 kts | 256° |
| 2026-04-22 16:20 | 41.24058 | 69.12456 | 3233 ft | 238 kts | 249° |
| 2026-04-22 16:20 | 41.23142 | 69.10719 | 3753 ft | 232 kts | 211° |
| 2026-04-22 16:21 | 41.21620 | 69.10058 | 4205 ft | 234 kts | 188° |
| 2026-04-22 16:21 | 41.19983 | 69.09866 | 4704 ft | 237 kts | 185° |
| 2026-04-22 16:21 | 41.18317 | 69.09838 | 5162 ft | 242 kts | 180° |
| 2026-04-22 16:21 | 41.16624 | 69.09969 | 5659 ft | 246 kts | 179° |
| 2026-04-22 16:22 | 41.13196 | 69.10456 | 6281 ft | 251 kts | 175° |
| 2026-04-22 16:22 | 41.11456 | 69.10770 | 6582 ft | 253 kts | 175° |
| 2026-04-22 16:22 | 41.09690 | 69.11087 | 6672 ft | 258 kts | 175° |
| 2026-04-22 16:23 | 41.06152 | 69.11736 | 6790 ft | 258 kts | 173° |
| 2026-04-22 16:23 | 41.04478 | 69.12684 | 7063 ft | 272 kts | 142° |
| 2026-04-22 16:23 | 41.03427 | 69.14794 | 7429 ft | 284 kts | 109° |
| 2026-04-22 16:24 | 41.03319 | 69.17409 | 7900 ft | 291 kts | 79° |
| 2026-04-22 16:24 | 41.04339 | 69.22662 | 8928 ft | 298 kts | 77° |
| 2026-04-22 16:24 | 41.04800 | 69.25355 | 9460 ft | 301 kts | 83° |
| 2026-04-22 16:25 | 41.04995 | 69.28131 | 10006 ft | 304 kts | 89° |
| 2026-04-22 16:25 | 41.05203 | 69.33728 | 11192 ft | 309 kts | 89° |
| 2026-04-22 16:25 | 41.05314 | 69.36574 | 11817 ft | 311 kts | 89° |
| 2026-04-22 16:26 | 41.05455 | 69.39454 | 12422 ft | 315 kts | 89° |
| 2026-04-22 16:26 | 41.05593 | 69.42360 | 13080 ft | 317 kts | 89° |
| 2026-04-22 16:26 | 41.05743 | 69.45293 | 13703 ft | 321 kts | 88° |
| 2026-04-22 16:26 | 41.05906 | 69.48278 | 14090 ft | 332 kts | 88° |
| 2026-04-22 16:27 | 41.06071 | 69.51356 | 14539 ft | 337 kts | 89° |
| 2026-04-22 16:27 | 41.06238 | 69.54459 | 14877 ft | 338 kts | 88° |
| 2026-04-22 16:27 | 41.06420 | 69.57574 | 15101 ft | 340 kts | 88° |
| 2026-04-22 16:27 | 41.06596 | 69.60716 | 15324 ft | 341 kts | 88° |
| 2026-04-22 16:28 | 41.06761 | 69.63858 | 15544 ft | 343 kts | 88° |
| 2026-04-22 16:28 | 41.06925 | 69.67019 | 15738 ft | 344 kts | 88° |
| 2026-04-22 16:28 | 41.07093 | 69.70151 | 15909 ft | 345 kts | 88° |
| 2026-04-22 16:28 | 41.07267 | 69.73322 | 16113 ft | 346 kts | 88° |
| 2026-04-22 16:29 | 41.07436 | 69.76520 | 16320 ft | 347 kts | 89° |
| 2026-04-22 16:29 | 41.07603 | 69.79713 | 16546 ft | 348 kts | 88° |
| 2026-04-22 16:29 | 41.07776 | 69.82932 | 16714 ft | 350 kts | 88° |
| 2026-04-22 16:29 | 41.07956 | 69.86154 | 16935 ft | 351 kts | 89° |
| 2026-04-22 16:30 | 41.08067 | 69.88295 | 17113 ft | 350 kts | 89° |
| 2026-04-22 16:30 | 41.08297 | 69.92623 | 17385 ft | 353 kts | 88° |
| 2026-04-22 16:30 | 41.08473 | 69.95877 | 17572 ft | 355 kts | 88° |
| 2026-04-22 16:30 | 41.08648 | 69.99141 | 17776 ft | 355 kts | 89° |
| 2026-04-22 16:31 | 41.08813 | 70.02376 | 17958 ft | 357 kts | 89° |
| 2026-04-22 16:31 | 41.08974 | 70.05669 | 18167 ft | 358 kts | 90° |
| 2026-04-22 16:31 | 41.09134 | 70.08964 | 18419 ft | 358 kts | 89° |
| 2026-04-22 16:31 | 41.09288 | 70.12276 | 18560 ft | 361 kts | 89° |
| 2026-04-22 16:32 | 41.09456 | 70.15596 | 18721 ft | 362 kts | 89° |
| 2026-04-22 16:32 | 41.09635 | 70.18938 | 18884 ft | 364 kts | 89° |
| 2026-04-22 16:32 | 41.09894 | 70.22285 | 19021 ft | 368 kts | 80° |
| 2026-04-22 16:32 | 41.10642 | 70.25551 | 19177 ft | 372 kts | 70° |
| 2026-04-22 16:33 | 41.11678 | 70.28703 | 19367 ft | 374 kts | 65° |
| 2026-04-22 16:33 | 41.12857 | 70.31788 | 19512 ft | 377 kts | 63° |
| 2026-04-22 16:33 | 41.14109 | 70.34836 | 19708 ft | 377 kts | 62° |
| 2026-04-22 16:33 | 41.15396 | 70.37874 | 19863 ft | 379 kts | 61° |
| 2026-04-22 16:34 | 41.16685 | 70.40931 | 20052 ft | 380 kts | 61° |
| 2026-04-22 16:34 | 41.17964 | 70.44004 | 20227 ft | 381 kts | 63° |
| 2026-04-22 16:34 | 41.19234 | 70.47101 | 20397 ft | 382 kts | 62° |
| 2026-04-22 16:34 | 41.20505 | 70.50199 | 20577 ft | 382 kts | 63° |
| 2026-04-22 16:35 | 41.21759 | 70.53323 | 20709 ft | 385 kts | 62° |
| 2026-04-22 16:35 | 41.23026 | 70.56469 | 20821 ft | 387 kts | 62° |
| 2026-04-22 16:35 | 41.24294 | 70.59634 | 20972 ft | 389 kts | 62° |
| 2026-04-22 16:35 | 41.25568 | 70.62804 | 21122 ft | 390 kts | 62° |
| 2026-04-22 16:36 | 41.26848 | 70.66000 | 21288 ft | 391 kts | 62° |
| 2026-04-22 16:36 | 41.28133 | 70.69198 | 21440 ft | 393 kts | 62° |
| 2026-04-22 16:36 | 41.29419 | 70.72354 | 21591 ft | 394 kts | 62° |
| 2026-04-22 16:36 | 41.30706 | 70.75574 | 21742 ft | 395 kts | 62° |
| 2026-04-22 16:37 | 41.31999 | 70.78806 | 21885 ft | 396 kts | 62° |
| 2026-04-22 16:37 | 41.33291 | 70.82055 | 22071 ft | 398 kts | 62° |
| 2026-04-22 16:37 | 41.34566 | 70.85319 | 22371 ft | 397 kts | 63° |
| 2026-04-22 16:37 | 41.35861 | 70.88583 | 22505 ft | 400 kts | 60° |
| 2026-04-22 16:38 | 41.37207 | 70.91805 | 22780 ft | 398 kts | 60° |
| 2026-04-22 16:38 | 41.38531 | 70.95048 | 22955 ft | 399 kts | 61° |
| 2026-04-22 16:38 | 41.39841 | 70.98324 | 23088 ft | 401 kts | 61° |
| 2026-04-22 16:38 | 41.41157 | 71.01606 | 23190 ft | 402 kts | 60° |
| 2026-04-22 16:39 | 41.42482 | 71.04901 | 23330 ft | 404 kts | 62° |
| 2026-04-22 16:39 | 41.43777 | 71.08233 | 23490 ft | 404 kts | 62° |
| 2026-04-22 16:39 | 41.45079 | 71.11559 | 23647 ft | 405 kts | 62° |
| 2026-04-22 16:39 | 41.46390 | 71.14885 | 23776 ft | 406 kts | 62° |
| 2026-04-22 16:40 | 41.47715 | 71.18223 | 23868 ft | 408 kts | 62° |
| 2026-04-22 16:40 | 41.49045 | 71.21567 | 24031 ft | 408 kts | 62° |
| 2026-04-22 16:40 | 41.51577 | 71.28308 | 24343 ft | 410 kts | 64° |
| 2026-04-22 16:41 | 41.52824 | 71.31711 | 24481 ft | 411 kts | 65° |
| 2026-04-22 16:41 | 41.54067 | 71.35172 | 24598 ft | 413 kts | 64° |
| 2026-04-22 16:41 | 41.55322 | 71.38613 | 24744 ft | 413 kts | 64° |
| 2026-04-22 16:41 | 41.56591 | 71.42051 | 24907 ft | 411 kts | 64° |
| 2026-04-22 16:42 | 41.57844 | 71.45487 | 25093 ft | 411 kts | 64° |
| 2026-04-22 16:42 | 41.59097 | 71.48919 | 25270 ft | 411 kts | 64° |
| 2026-04-22 16:42 | 41.60348 | 71.52331 | 25468 ft | 410 kts | 64° |
| 2026-04-22 16:42 | 41.61617 | 71.55767 | 25581 ft | 411 kts | 65° |
| 2026-04-22 16:43 | 41.62862 | 71.59218 | 25677 ft | 412 kts | 64° |
| 2026-04-22 16:43 | 41.64113 | 71.62665 | 25827 ft | 412 kts | 64° |
| 2026-04-22 16:43 | 41.65362 | 71.66124 | 25975 ft | 413 kts | 65° |
| 2026-04-22 16:43 | 41.66603 | 71.69582 | 26151 ft | 412 kts | 64° |
| 2026-04-22 16:44 | 41.67852 | 71.73023 | 26280 ft | 413 kts | 65° |
| 2026-04-22 16:44 | 41.69100 | 71.76479 | 26409 ft | 412 kts | 65° |
| 2026-04-22 16:44 | 41.70345 | 71.79932 | 26568 ft | 413 kts | 65° |
| 2026-04-22 16:44 | 41.71612 | 71.83382 | 26705 ft | 412 kts | 64° |
| 2026-04-22 16:45 | 41.72925 | 71.86798 | 26884 ft | 412 kts | 63° |
| 2026-04-22 16:45 | 41.74256 | 71.90142 | 27071 ft | 412 kts | 63° |
| 2026-04-22 16:45 | 41.75613 | 71.93535 | 27226 ft | 412 kts | 62° |
| 2026-04-22 16:45 | 41.76959 | 71.96922 | 27362 ft | 411 kts | 63° |
| 2026-04-22 16:46 | 41.78301 | 72.00318 | 27513 ft | 412 kts | 63° |
| 2026-04-22 16:46 | 41.79636 | 72.03723 | 27600 ft | 412 kts | 63° |
| 2026-04-22 16:46 | 41.80961 | 72.07124 | 27756 ft | 412 kts | 63° |
| 2026-04-22 16:46 | 41.82279 | 72.10529 | 27905 ft | 412 kts | 63° |
| 2026-04-22 16:47 | 41.83604 | 72.13931 | 28100 ft | 411 kts | 63° |
| 2026-04-22 16:47 | 41.84920 | 72.17291 | 28529 ft | 403 kts | 63° |
| 2026-04-22 16:47 | 41.85782 | 72.19485 | 28719 ft | 401 kts | 63° |
| 2026-04-22 16:47 | 41.87505 | 72.23914 | 28906 ft | 399 kts | 64° |
| 2026-04-22 16:48 | 41.88770 | 72.27216 | 29053 ft | 398 kts | 64° |
| 2026-04-22 16:48 | 41.90037 | 72.30517 | 29169 ft | 397 kts | 64° |
| 2026-04-22 16:48 | 41.91324 | 72.33810 | 29227 ft | 397 kts | 63° |
| 2026-04-22 16:48 | 41.92614 | 72.37088 | 29355 ft | 397 kts | 63° |
| 2026-04-22 16:49 | 41.93887 | 72.40379 | 29494 ft | 397 kts | 64° |
| 2026-04-22 16:49 | 41.94725 | 72.42560 | 29600 ft | 397 kts | 64° |
| 2026-04-22 16:49 | 41.95989 | 72.45864 | 29667 ft | 397 kts | 65° |
| 2026-04-22 16:49 | 41.97651 | 72.50245 | 29786 ft | 397 kts | 64° |
| 2026-04-22 16:50 | 41.98923 | 72.53547 | 29904 ft | 397 kts | 64° |
| 2026-04-22 16:50 | 42.01047 | 72.59025 | 30118 ft | 397 kts | 64° |
| 2026-04-22 16:51 | 42.03580 | 72.65654 | 30275 ft | 399 kts | 64° |
| 2026-04-22 16:51 | 42.04853 | 72.68969 | 30380 ft | 400 kts | 63° |
| 2026-04-22 16:51 | 42.06141 | 72.72298 | 30443 ft | 400 kts | 63° |
| 2026-04-22 16:52 | 42.08670 | 72.78982 | 30626 ft | 399 kts | 64° |
| 2026-04-22 16:52 | 42.11195 | 72.85653 | 30757 ft | 401 kts | 63° |
| 2026-04-22 16:52 | 42.12466 | 72.88972 | 30866 ft | 399 kts | 63° |
| 2026-04-22 16:53 | 42.13712 | 72.92240 | 30875 ft | 396 kts | 63° |
| 2026-04-22 16:53 | 42.16214 | 72.98871 | 30946 ft | 399 kts | 64° |
| 2026-04-22 16:53 | 42.17469 | 73.02228 | 30777 ft | 407 kts | 64° |
| 2026-04-22 16:54 | 42.18775 | 73.05719 | 30308 ft | 427 kts | 64° |
| 2026-04-22 16:54 | 42.20144 | 73.09365 | 29801 ft | 442 kts | 63° |
| 2026-04-22 16:54 | 42.21554 | 73.13066 | 29226 ft | 444 kts | 63° |
| 2026-04-22 16:54 | 42.22965 | 73.16777 | 28668 ft | 443 kts | 63° |
| 2026-04-22 16:55 | 42.24352 | 73.20474 | 28099 ft | 440 kts | 63° |
| 2026-04-22 16:55 | 42.25732 | 73.24162 | 27565 ft | 440 kts | 63° |
| 2026-04-22 16:55 | 42.27115 | 73.27867 | 27021 ft | 442 kts | 63° |
| 2026-04-22 16:55 | 42.28496 | 73.31562 | 26491 ft | 441 kts | 63° |
| 2026-04-22 16:56 | 42.29881 | 73.35241 | 25962 ft | 437 kts | 63° |
| 2026-04-22 16:56 | 42.31268 | 73.38879 | 25439 ft | 434 kts | 63° |
| 2026-04-22 16:56 | 42.32643 | 73.42499 | 24907 ft | 430 kts | 63° |
| 2026-04-22 16:56 | 42.33973 | 73.46107 | 24347 ft | 428 kts | 64° |
| 2026-04-22 16:57 | 42.35279 | 73.49649 | 23857 ft | 425 kts | 63° |
| 2026-04-22 16:57 | 42.36611 | 73.53195 | 23323 ft | 421 kts | 60° |
| 2026-04-22 16:57 | 42.38349 | 73.56329 | 22752 ft | 414 kts | 39° |
| 2026-04-22 16:57 | 42.40744 | 73.58362 | 22216 ft | 401 kts | 17° |
| 2026-04-22 16:58 | 42.43408 | 73.59227 | 21694 ft | 388 kts | 4° |
| 2026-04-22 16:58 | 42.46070 | 73.59749 | 21152 ft | 384 kts | 4° |
| 2026-04-22 16:58 | 42.48709 | 73.60071 | 20621 ft | 378 kts | 357° |
| 2026-04-22 16:58 | 42.51317 | 73.59990 | 20127 ft | 372 kts | 352° |
| 2026-04-22 16:59 | 42.53882 | 73.59654 | 19612 ft | 367 kts | 350° |
| 2026-04-22 16:59 | 42.56372 | 73.59238 | 19060 ft | 363 kts | 350° |
| 2026-04-22 16:59 | 42.58900 | 73.58752 | 18486 ft | 361 kts | 349° |
| 2026-04-22 16:59 | 42.61340 | 73.58247 | 17862 ft | 358 kts | 350° |
| 2026-04-22 17:00 | 42.63798 | 73.57787 | 17160 ft | 355 kts | 349° |
| 2026-04-22 17:00 | 42.68633 | 73.56887 | 16046 ft | 345 kts | 351° |
| 2026-04-22 17:00 | 42.70969 | 73.56476 | 15842 ft | 332 kts | 351° |
| 2026-04-22 17:01 | 42.73222 | 73.56095 | 15610 ft | 320 kts | 351° |
| 2026-04-22 17:01 | 42.75397 | 73.55736 | 15401 ft | 310 kts | 351° |
| 2026-04-22 17:01 | 42.77511 | 73.55370 | 15187 ft | 301 kts | 351° |
| 2026-04-22 17:01 | 42.79569 | 73.55069 | 14889 ft | 296 kts | 0° |
| 2026-04-22 17:02 | 42.81549 | 73.55810 | 14475 ft | 300 kts | 31° |
| 2026-04-22 17:02 | 42.83023 | 73.57807 | 14077 ft | 303 kts | 60° |
| 2026-04-22 17:02 | 42.83858 | 73.60442 | 13691 ft | 303 kts | 71° |
| 2026-04-22 17:02 | 42.84523 | 73.63135 | 13257 ft | 305 kts | 72° |
| 2026-04-22 17:03 | 42.85163 | 73.65907 | 12790 ft | 307 kts | 73° |
| 2026-04-22 17:03 | 42.85799 | 73.68695 | 12359 ft | 309 kts | 73° |
| 2026-04-22 17:03 | 42.86453 | 73.71489 | 11917 ft | 311 kts | 72° |
| 2026-04-22 17:03 | 42.87118 | 73.74297 | 11470 ft | 312 kts | 72° |
| 2026-04-22 17:04 | 42.87799 | 73.77110 | 11047 ft | 313 kts | 72° |
| 2026-04-22 17:04 | 42.88493 | 73.79925 | 10611 ft | 313 kts | 72° |
| 2026-04-22 17:04 | 42.89181 | 73.82699 | 10149 ft | 298 kts | 72° |
| 2026-04-22 17:04 | 42.89829 | 73.85298 | 9544 ft | 281 kts | 71° |
| 2026-04-22 17:05 | 42.90445 | 73.87771 | 8888 ft | 270 kts | 71° |
| 2026-04-22 17:05 | 42.91044 | 73.90154 | 8246 ft | 260 kts | 71° |
| 2026-04-22 17:05 | 42.91628 | 73.92441 | 7603 ft | 252 kts | 71° |
| 2026-04-22 17:05 | 42.92205 | 73.94711 | 6993 ft | 253 kts | 70° |
| 2026-04-22 17:06 | 42.92769 | 73.96952 | 6413 ft | 253 kts | 71° |
| 2026-04-22 17:06 | 42.93343 | 73.99254 | 5912 ft | 252 kts | 71° |
| 2026-04-22 17:06 | 42.93778 | 74.01508 | 5749 ft | 245 kts | 79° |
| 2026-04-22 17:06 | 42.94081 | 74.03764 | 5589 ft | 238 kts | 81° |
| 2026-04-22 17:07 | 42.94336 | 74.06012 | 5480 ft | 244 kts | 82° |
| 2026-04-22 17:07 | 42.94577 | 74.08317 | 5402 ft | 245 kts | 82° |
| 2026-04-22 17:07 | 42.94825 | 74.10618 | 5341 ft | 244 kts | 82° |
| 2026-04-22 17:07 | 42.95074 | 74.12916 | 5256 ft | 245 kts | 82° |
| 2026-04-22 17:08 | 42.95322 | 74.15221 | 5174 ft | 245 kts | 82° |
| 2026-04-22 17:08 | 42.95571 | 74.17526 | 5102 ft | 245 kts | 82° |
| 2026-04-22 17:08 | 42.95827 | 74.19825 | 5024 ft | 244 kts | 81° |
| 2026-04-22 17:08 | 42.96095 | 74.22108 | 4973 ft | 243 kts | 81° |
| 2026-04-22 17:09 | 42.96362 | 74.24376 | 4928 ft | 248 kts | 81° |
| 2026-04-22 17:09 | 42.96622 | 74.26707 | 4896 ft | 249 kts | 81° |
| 2026-04-22 17:09 | 42.96886 | 74.29035 | 4862 ft | 248 kts | 81° |
| 2026-04-22 17:09 | 42.97158 | 74.31362 | 4825 ft | 248 kts | 81° |
| 2026-04-22 17:10 | 42.97417 | 74.33695 | 4794 ft | 248 kts | 81° |
| 2026-04-22 17:10 | 42.97679 | 74.36023 | 4759 ft | 249 kts | 80° |
| 2026-04-22 17:10 | 42.97945 | 74.38371 | 4725 ft | 250 kts | 81° |
| 2026-04-22 17:10 | 42.98210 | 74.40721 | 4691 ft | 250 kts | 81° |
| 2026-04-22 17:11 | 42.98470 | 74.43051 | 4659 ft | 243 kts | 81° |
| 2026-04-22 17:11 | 42.98710 | 74.45285 | 4606 ft | 232 kts | 80° |
| 2026-04-22 17:11 | 42.98954 | 74.47424 | 4543 ft | 224 kts | 81° |
| 2026-04-22 17:11 | 42.99183 | 74.49457 | 4504 ft | 215 kts | 80° |
| 2026-04-22 17:12 | 42.99403 | 74.51415 | 4469 ft | 200 kts | 80° |
| 2026-04-22 17:12 | 42.99607 | 74.53214 | 4460 ft | 187 kts | 80° |
| 2026-04-22 17:12 | 42.99802 | 74.54969 | 4444 ft | 187 kts | 80° |
| 2026-04-22 17:12 | 42.99999 | 74.56733 | 4425 ft | 188 kts | 81° |
| 2026-04-22 17:13 | 43.00187 | 74.58500 | 4413 ft | 188 kts | 81° |
| 2026-04-22 17:13 | 43.00380 | 74.60264 | 4410 ft | 187 kts | 81° |
| 2026-04-22 17:13 | 43.00566 | 74.62022 | 4410 ft | 187 kts | 80° |
| 2026-04-22 17:13 | 43.00772 | 74.63780 | 4414 ft | 187 kts | 79° |
| 2026-04-22 17:14 | 43.00960 | 74.65541 | 4413 ft | 187 kts | 82° |
| 2026-04-22 17:14 | 43.01161 | 74.67297 | 4393 ft | 185 kts | 76° |
| 2026-04-22 17:14 | 43.01838 | 74.68606 | 4374 ft | 162 kts | 23° |
| 2026-04-22 17:14 | 43.02876 | 74.69106 | 4400 ft | 158 kts | 16° |
| 2026-04-22 17:15 | 43.03571 | 74.69426 | 4408 ft | 159 kts | 17° |
| 2026-04-22 17:15 | 43.05007 | 74.69840 | 4233 ft | 160 kts | 344° |
| 2026-04-22 17:15 | 43.05977 | 74.69150 | 4084 ft | 156 kts | 321° |
| 2026-04-22 17:15 | 43.06762 | 74.68144 | 3894 ft | 155 kts | 311° |
| 2026-04-22 17:16 | 43.07447 | 74.67010 | 3680 ft | 155 kts | 302° |
| 2026-04-22 17:16 | 43.07874 | 74.65673 | 3498 ft | 151 kts | 289° |
| 2026-04-22 17:16 | 43.08138 | 74.64301 | 3417 ft | 148 kts | 274° |
| 2026-04-22 17:16 | 43.07965 | 74.62937 | 3406 ft | 144 kts | 263° |
| 2026-04-22 17:17 | 43.07852 | 74.61658 | 3380 ft | 125 kts | 266° |
| 2026-04-22 17:17 | 43.07753 | 74.60522 | 3381 ft | 120 kts | 262° |
| 2026-04-22 17:17 | 43.07625 | 74.59384 | 3382 ft | 121 kts | 264° |
| 2026-04-22 17:17 | 43.07475 | 74.58211 | 3208 ft | 127 kts | 260° |
| 2026-04-22 17:18 | 43.07323 | 74.57028 | 3043 ft | 126 kts | 261° |
| 2026-04-22 17:18 | 43.07175 | 74.55844 | 2885 ft | 126 kts | 261° |
| 2026-04-22 17:18 | 43.07027 | 74.54669 | 2732 ft | 128 kts | 257° |
| 2026-04-22 17:18 | 43.06871 | 74.53441 | 2529 ft | 131 kts | 258° |
| 2026-04-22 17:19 | 43.06557 | 74.51011 | 2235 ft | 129 kts | 259° |
| 2026-04-22 17:19 | 43.06259 | 74.48725 | 2073 ft | 104 kts | 259° |
| 2026-04-22 17:20 | 43.06083 | 74.47389 | 2086 ft | 46 kts | 259° |
| 2026-04-22 17:20 | 43.06023 | 74.47106 | 2088 ft | 3 kts | 193° |
| 2026-04-22 17:21 | 43.05989 | 74.47105 | 2089 ft | 9 kts | 176° |
| 2026-04-22 17:21 | 43.05832 | 74.47076 | 2089 ft | 11 kts | 237° |
| 2026-04-22 17:22 | 43.05713 | 74.47038 | 2089 ft | 12 kts | 179° |
| 2026-04-22 17:22 | 43.05635 | 74.47009 | 2089 ft | 11 kts | 211° |
| 2026-04-22 17:22 | 43.05534 | 74.46950 | 2090 ft | 6 kts | 167° |
| 2026-04-22 17:23 | 43.05521 | 74.46955 | 2090 ft | 2 kts | 153° |
| 2026-04-22 17:23 | 43.05503 | 74.46988 | 2090 ft | 0 kts | 122° |
| 2026-04-22 17:23 | 43.05502 | 74.46990 | 2090 ft | 0 kts | 122° |